Bangor — FGE4786 — position and weather

sailwx.info

Track history (hours):
 
Tides and Currents Weather Stations Pressure Air Temp Water Temp Dewpoint Dewpoint Depression Visibility Wind Speed Wind Dir Waves Ship Positions

Bangor

Last reported at 2017-Sep-21 17:30 UTC. Time now 2017-Sep-21 18:02 UTC.
Position N 47°21' W 003°09'.

Length 46 m; draft 2.8 m.

Type: Passenger vessel. MMSI: 227644930.

Date/timePositionNaut miles runAvg speedWind from/ knotsBaromVisibWave heightAir tempDewpointWater temp
2017-Sep-21 17:30N 47°21' W 003°09'611.2
2017-Sep-21 16:59N 47°26' W 003°08'2 4.4
2017-Sep-21 16:30N 47°29' W 003°07'0 0.5
2017-Sep-21 16:00N 47°28' W 003°07'611.4
2017-Sep-21 15:30N 47°23' W 003°08'2 2.3
2017-Sep-21 14:34N 47°21' W 003°09'0 1.0
2017-Sep-21 14:30N 47°21' W 003°09'0 0.0
2017-Sep-21 09:35N 47°21' W 003°09'0 0.1
2017-Sep-21 09:31N 47°21' W 003°09'1 1.4
2017-Sep-21 09:01N 47°21' W 003°08'1 0.9
2017-Sep-21 08:11N 47°21' W 003°09'0 0.3
2017-Sep-21 08:01N 47°21' W 003°09'510.8
2017-Sep-21 07:31N 47°26' W 003°08'2 4.9
2017-Sep-21 07:01N 47°29' W 003°07'0 0.0
2017-Sep-21 06:31N 47°29' W 003°07'3 5.8
2017-Sep-21 06:00N 47°26' W 003°08'5 8.3
2017-Sep-21 05:25N 47°21' W 003°09'0 0.1
2017-Sep-21 04:57N 47°21' W 003°09'0 0.0
2017-Sep-20 19:04N 47°21' W 003°09'0 0.0
2017-Sep-20 19:00N 47°21' W 003°09'3 5.4
2017-Sep-20 18:29N 47°24' W 003°08'510.6
2017-Sep-20 18:00N 47°29' W 003°07'0 0.0
2017-Sep-20 17:30N 47°29' W 003°07'4 7.2
2017-Sep-20 17:00N 47°25' W 003°08'4 8.3
2017-Sep-20 16:29N 47°21' W 003°09'0 0.0
2017-Sep-20 16:00N 47°21' W 003°09'0 0.0
2017-Sep-20 09:07N 47°21' W 003°09'0 0.1
2017-Sep-20 09:00N 47°21' W 003°09'0 0.1
2017-Sep-20 08:21N 47°21' W 003°09'3 8.3
2017-Sep-20 08:00N 47°24' W 003°08'510.0
2017-Sep-20 07:30N 47°29' W 003°07'0 0.0
2017-Sep-20 07:01N 47°29' W 003°07'0 0.1
2017-Sep-20 06:30N 47°29' W 003°07'611.8
2017-Sep-20 06:01N 47°23' W 003°08'2 2.4
2017-Sep-20 05:11N 47°21' W 003°09'0 0.3
2017-Sep-20 05:00N 47°21' W 003°09'0 0.0
2017-Sep-19 17:38N 47°21' W 003°09'0 0.2
2017-Sep-19 17:30N 47°21' W 003°09'2 4.8
2017-Sep-19 17:00N 47°23' W 003°08'511.1
2017-Sep-19 16:30N 47°29' W 003°07'0 0.0
2017-Sep-19 16:00N 47°29' W 003°07'0 0.0
2017-Sep-19 15:30N 47°29' W 003°07'3 5.7
2017-Sep-19 15:00N 47°26' W 003°08'5 4.6
2017-Sep-19 13:54N 47°21' W 003°09'0 0.0
2017-Sep-19 09:04N 47°21' W 003°09'0 0.0
2017-Sep-19 09:00N 47°21' W 003°09'0 0.0
2017-Sep-19 08:23N 47°21' W 003°09'4 9.9
2017-Sep-19 08:01N 47°25' W 003°08'4 8.3
2017-Sep-19 07:30N 47°29' W 003°07'0 0.0
2017-Sep-19 07:00N 47°29' W 003°07'0 0.0
2017-Sep-19 06:30N 47°29' W 003°07'611.4
2017-Sep-19 06:00N 47°23' W 003°08'2 0.2
2017-Sep-18 17:43N 47°21' W 003°09'0 0.3
2017-Sep-18 17:31N 47°21' W 003°09'3 5.9
2017-Sep-18 17:00N 47°24' W 003°08'5 9.9
2017-Sep-18 16:30N 47°29' W 003°07'0 0.0
2017-Sep-18 16:00N 47°29' W 003°07'3 5.7
2017-Sep-18 15:31N 47°26' W 003°07'5 7.8
2017-Sep-18 14:52N 47°21' W 003°09'0 0.0
2017-Sep-18 14:30N 47°21' W 003°09'0 0.0
2017-Sep-18 09:00N 47°21' W 003°09'0 0.1
2017-Sep-18 08:27N 47°21' W 003°09'3 5.9
2017-Sep-18 08:00N 47°23' W 003°08'510.7
2017-Sep-18 07:30N 47°29' W 003°07'0 0.0
2017-Sep-18 07:00N 47°29' W 003°07'0 0.0
2017-Sep-18 06:30N 47°29' W 003°07'611.6
2017-Sep-18 06:00N 47°23' W 003°08'2 2.3
2017-Sep-18 05:07N 47°21' W 003°09'0 0.2
2017-Sep-18 05:00N 47°21' W 003°09'0 0.0
2017-Sep-17 20:07N 47°21' W 003°09'0 0.0
2017-Sep-17 20:00N 47°21' W 003°09'2 4.6
2017-Sep-17 19:30N 47°23' W 003°08'611.2
2017-Sep-17 19:00N 47°29' W 003°07'0 0.0
2017-Sep-17 18:31N 47°29' W 003°07'611.2
2017-Sep-17 18:00N 47°23' W 003°08'2 3.2
2017-Sep-17 17:19N 47°21' W 003°09'310.0
2017-Sep-17 16:59N 47°24' W 003°08'5 9.7
2017-Sep-17 16:30N 47°29' W 003°07'0 0.0
2017-Sep-17 16:00N 47°29' W 003°07'3 5.7
2017-Sep-17 15:30N 47°26' W 003°08'5 4.0
2017-Sep-17 14:15N 47°21' W 003°09'2 9.9
2017-Sep-17 14:00N 47°23' W 003°08'510.9
2017-Sep-17 13:30N 47°29' W 003°07'0 0.0
2017-Sep-17 13:00N 47°29' W 003°07'3 5.8
2017-Sep-17 12:30N 47°26' W 003°08'5 2.8
2017-Sep-17 10:42N 47°21' W 003°09'1 7.1
2017-Sep-17 10:30N 47°21' W 003°07'0 0.4
2017-Sep-17 10:00N 47°21' W 003°07'1 1.3
2017-Sep-17 09:30N 47°21' W 003°06'1 1.1
2017-Sep-17 09:00N 47°21' W 003°07'1 1.9
2017-Sep-17 08:16N 47°21' W 003°09'3 9.9
2017-Sep-17 08:00N 47°23' W 003°08'510.7
2017-Sep-17 07:30N 47°29' W 003°07'0 0.0
2017-Sep-17 07:00N 47°29' W 003°07'0 0.0
2017-Sep-17 06:31N 47°29' W 003°07'611.5
2017-Sep-17 06:00N 47°23' W 003°08'2 2.3
2017-Sep-17 05:06N 47°21' W 003°09'0 0.2
2017-Sep-17 05:00N 47°21' W 003°09'0 0.0
2017-Sep-16 17:38N 47°21' W 003°09'0 0.1
2017-Sep-16 17:18N 47°21' W 003°09'3 9.4
2017-Sep-16 17:00N 47°24' W 003°08'510.3
2017-Sep-16 16:30N 47°29' W 003°07'0 0.0
2017-Sep-16 16:00N 47°29' W 003°07'3 5.4
2017-Sep-16 15:30N 47°26' W 003°08'5 4.1
2017-Sep-16 14:15N 47°21' W 003°09'2 9.9
2017-Sep-16 14:00N 47°23' W 003°08'510.8
2017-Sep-16 13:30N 47°29' W 003°07'0 0.0
2017-Sep-16 13:00N 47°29' W 003°07'3 5.9
2017-Sep-16 12:30N 47°26' W 003°08'5 4.0
2017-Sep-16 11:16N 47°21' W 003°09'310.5
2017-Sep-16 11:00N 47°24' W 003°08'510.3
2017-Sep-16 10:30N 47°29' W 003°07'0 0.0
2017-Sep-16 10:00N 47°29' W 003°07'3 6.7
2017-Sep-16 09:30N 47°25' W 003°08'5 3.7
2017-Sep-16 08:16N 47°21' W 003°09'310.1
2017-Sep-16 08:00N 47°23' W 003°08'510.4
2017-Sep-16 07:30N 47°29' W 003°07'0 0.0
2017-Sep-16 07:00N 47°29' W 003°07'0 0.3
2017-Sep-16 06:30N 47°29' W 003°07'611.8
2017-Sep-16 06:00N 47°23' W 003°08'2 2.3
2017-Sep-16 05:10N 47°21' W 003°09'0 0.1
2017-Sep-16 05:00N 47°21' W 003°09'0 0.0
2017-Sep-15 17:41N 47°21' W 003°09'0 0.1
2017-Sep-15 17:17N 47°21' W 003°09'3 9.8
2017-Sep-15 17:00N 47°23' W 003°08'510.5
2017-Sep-15 16:31N 47°29' W 003°07'0 0.0
2017-Sep-15 16:01N 47°29' W 003°07'3 6.2
2017-Sep-15 15:31N 47°25' W 003°08'5 3.8
2017-Sep-15 14:15N 47°21' W 003°09'2 9.8
2017-Sep-15 14:01N 47°23' W 003°08'510.9
2017-Sep-15 13:30N 47°29' W 003°07'0 0.0
2017-Sep-15 13:00N 47°29' W 003°07'3 6.2
2017-Sep-15 12:31N 47°26' W 003°08'5 6.1
2017-Sep-15 11:43N 47°21' W 003°09'0 0.1
2017-Sep-15 11:13N 47°21' W 003°09'310.4
2017-Sep-15 10:58N 47°23' W 003°08'511.5
2017-Sep-15 10:30N 47°29' W 003°07'0 0.0
2017-Sep-15 10:00N 47°29' W 003°07'3 5.8
2017-Sep-15 09:31N 47°26' W 003°08'5 3.9
2017-Sep-15 08:15N 47°21' W 003°09'310.7
2017-Sep-15 07:59N 47°24' W 003°08'510.4
2017-Sep-15 07:30N 47°29' W 003°07'0 0.0
2017-Sep-15 07:00N 47°29' W 003°07'0 0.1
2017-Sep-15 06:30N 47°29' W 003°07'611.3
2017-Sep-15 06:01N 47°23' W 003°08'2 0.2
2017-Sep-14 18:51N 47°21' W 003°09'0 0.1
2017-Sep-14 18:29N 47°21' W 003°09'511.3
2017-Sep-14 18:01N 47°26' W 003°08'2 4.9
2017-Sep-14 17:30N 47°29' W 003°07'2 4.7
2017-Sep-14 17:01N 47°26' W 003°07'510.2
2017-Sep-14 16:31N 47°21' W 003°08'1 1.3
2017-Sep-14 16:00N 47°21' W 003°09'2 5.0
2017-Sep-14 15:30N 47°23' W 003°08'510.8
2017-Sep-14 15:00N 47°29' W 003°07'0 0.0
2017-Sep-14 14:30N 47°29' W 003°07'3 5.1
2017-Sep-14 14:00N 47°26' W 003°08'510.6
2017-Sep-14 13:31N 47°21' W 003°09'0 0.0
2017-Sep-14 11:45N 47°21' W 003°09'310.0
2017-Sep-14 11:30N 47°23' W 003°08'510.9
2017-Sep-14 11:00N 47°29' W 003°07'0 0.0
2017-Sep-14 10:31N 47°29' W 003°07'0 0.0
2017-Sep-14 10:01N 47°29' W 003°07'4 7.5
2017-Sep-14 09:30N 47°25' W 003°08'4 3.3
2017-Sep-14 08:15N 47°21' W 003°09'2 9.7
2017-Sep-14 08:00N 47°23' W 003°08'611.2
2017-Sep-14 07:30N 47°29' W 003°07'0 0.0
2017-Sep-14 07:00N 47°29' W 003°07'0 1.0
2017-Sep-14 06:30N 47°28' W 003°07'611.1
2017-Sep-14 06:00N 47°23' W 003°08'2 2.7
2017-Sep-14 05:17N 47°21' W 003°09'0 0.2
2017-Sep-14 05:00N 47°21' W 003°09'0 0.0
2017-Sep-13 18:48N 47°21' W 003°09'0 0.9
2017-Sep-13 18:29N 47°21' W 003°09'612.2
2017-Sep-13 18:01N 47°27' W 003°08'2 4.2
2017-Sep-13 17:30N 47°29' W 003°07'1 2.2
2017-Sep-13 17:01N 47°28' W 003°07'611.8
2017-Sep-13 16:31N 47°22' W 003°08'1 1.5
2017-Sep-13 15:53N 47°21' W 003°09'410.1
2017-Sep-13 15:30N 47°25' W 003°08'4 7.9
2017-Sep-13 15:00N 47°29' W 003°07'0 0.0
2017-Sep-13 14:31N 47°29' W 003°07'3 5.0
2017-Sep-13 14:01N 47°26' W 003°08'5 2.4
2017-Sep-13 11:47N 47°21' W 003°09'610.7
2017-Sep-13 11:15N 47°26' W 003°07'2 9.6
2017-Sep-13 11:01N 47°29' W 003°07'0 0.0
2017-Sep-13 10:31N 47°29' W 003°07'0 0.0
2017-Sep-13 10:01N 47°29' W 003°07'3 5.3
2017-Sep-13 09:30N 47°26' W 003°08'5 4.1
2017-Sep-13 08:15N 47°21' W 003°09'2 9.9
2017-Sep-13 08:01N 47°23' W 003°08'510.9
2017-Sep-13 07:31N 47°29' W 003°07'0 0.0
2017-Sep-13 07:00N 47°29' W 003°07'1 1.2
2017-Sep-13 06:30N 47°28' W 003°07'611.7
2017-Sep-13 06:00N 47°22' W 003°08'1 0.1
2017-Sep-12 18:47N 47°21' W 003°09'0 0.1
2017-Sep-12 18:29N 47°21' W 003°09'511.0
2017-Sep-12 18:01N 47°26' W 003°08'3 5.1
2017-Sep-12 17:31N 47°29' W 003°07'1 1.4
2017-Sep-12 17:01N 47°28' W 003°07'612.1
2017-Sep-12 16:31N 47°22' W 003°08'1 1.6
2017-Sep-12 15:46N 47°21' W 003°09'310.1
2017-Sep-12 15:31N 47°23' W 003°08'510.6
2017-Sep-12 15:01N 47°29' W 003°07'0 0.0
2017-Sep-12 14:31N 47°29' W 003°07'3 5.1
2017-Sep-12 14:01N 47°26' W 003°08'5 4.8
2017-Sep-12 12:55N 47°21' W 003°09'0 0.0
2017-Sep-12 12:29N 47°21' W 003°09'0 0.0
2017-Sep-12 12:00N 47°21' W 003°09'3 5.4
2017-Sep-12 11:31N 47°23' W 003°08'510.5
2017-Sep-12 11:01N 47°29' W 003°07'0 0.0
2017-Sep-12 10:31N 47°29' W 003°07'0 0.0
2017-Sep-12 10:01N 47°29' W 003°07'4 7.7
2017-Sep-12 09:31N 47°25' W 003°08'4 3.4
2017-Sep-12 08:19N 47°21' W 003°09'310.4
2017-Sep-12 08:01N 47°24' W 003°08'5 9.3
2017-Sep-12 07:30N 47°29' W 003°07'0 0.0
2017-Sep-12 07:01N 47°29' W 003°07'1 1.0
2017-Sep-12 06:30N 47°28' W 003°07'611.5
2017-Sep-12 06:01N 47°22' W 003°08'2 2.0
2017-Sep-12 05:08N 47°21' W 003°09'0 0.1
2017-Sep-12 05:01N 47°21' W 003°09'0 0.0
2017-Sep-11 18:57N 47°21' W 003°09'0 0.2
2017-Sep-11 18:31N 47°21' W 003°09'611.4
2017-Sep-11 18:00N 47°26' W 003°08'2 4.3
2017-Sep-11 17:30N 47°29' W 003°07'  
Track history (hours):
 
Tides and Currents Weather Stations Pressure Air Temp Water Temp Dewpoint Dewpoint Depression Visibility Wind Speed Wind Dir Waves Ship Positions

Bangor

Last reported at 2017-Sep-21 17:30 UTC. Time now 2017-Sep-21 18:02 UTC.
Position N 47°21' W 003°09'.

Length 46 m; draft 2.8 m.

Type: Passenger vessel. MMSI: 227644930.

Date/timePositionNaut miles runAvg speedWind from/ knotsBaromVisibWave heightAir tempDewpointWater temp
2017-Sep-21 17:30N 47°21' W 003°09'611.2
2017-Sep-21 16:59N 47°26' W 003°08'2 4.4
2017-Sep-21 16:30N 47°29' W 003°07'0 0.5
2017-Sep-21 16:00N 47°28' W 003°07'611.4
2017-Sep-21 15:30N 47°23' W 003°08'2 2.3
2017-Sep-21 14:34N 47°21' W 003°09'0 1.0
2017-Sep-21 14:30N 47°21' W 003°09'0 0.0
2017-Sep-21 09:35N 47°21' W 003°09'0 0.1
2017-Sep-21 09:31N 47°21' W 003°09'1 1.4
2017-Sep-21 09:01N 47°21' W 003°08'1 0.9
2017-Sep-21 08:11N 47°21' W 003°09'0 0.3
2017-Sep-21 08:01N 47°21' W 003°09'510.8
2017-Sep-21 07:31N 47°26' W 003°08'2 4.9
2017-Sep-21 07:01N 47°29' W 003°07'0 0.0
2017-Sep-21 06:31N 47°29' W 003°07'3 5.8
2017-Sep-21 06:00N 47°26' W 003°08'5 8.3
2017-Sep-21 05:25N 47°21' W 003°09'0 0.1
2017-Sep-21 04:57N 47°21' W 003°09'0 0.0
2017-Sep-20 19:04N 47°21' W 003°09'0 0.0
2017-Sep-20 19:00N 47°21' W 003°09'3 5.4
2017-Sep-20 18:29N 47°24' W 003°08'510.6
2017-Sep-20 18:00N 47°29' W 003°07'0 0.0
2017-Sep-20 17:30N 47°29' W 003°07'4 7.2
2017-Sep-20 17:00N 47°25' W 003°08'4 8.3
2017-Sep-20 16:29N 47°21' W 003°09'0 0.0
2017-Sep-20 16:00N 47°21' W 003°09'0 0.0
2017-Sep-20 09:07N 47°21' W 003°09'0 0.1
2017-Sep-20 09:00N 47°21' W 003°09'0 0.1
2017-Sep-20 08:21N 47°21' W 003°09'3 8.3
2017-Sep-20 08:00N 47°24' W 003°08'510.0
2017-Sep-20 07:30N 47°29' W 003°07'0 0.0
2017-Sep-20 07:01N 47°29' W 003°07'0 0.1
2017-Sep-20 06:30N 47°29' W 003°07'611.8
2017-Sep-20 06:01N 47°23' W 003°08'2 2.4
2017-Sep-20 05:11N 47°21' W 003°09'0 0.3
2017-Sep-20 05:00N 47°21' W 003°09'0 0.0
2017-Sep-19 17:38N 47°21' W 003°09'0 0.2
2017-Sep-19 17:30N 47°21' W 003°09'2 4.8
2017-Sep-19 17:00N 47°23' W 003°08'511.1
2017-Sep-19 16:30N 47°29' W 003°07'0 0.0
2017-Sep-19 16:00N 47°29' W 003°07'0 0.0
2017-Sep-19 15:30N 47°29' W 003°07'3 5.7
2017-Sep-19 15:00N 47°26' W 003°08'5 4.6
2017-Sep-19 13:54N 47°21' W 003°09'0 0.0
2017-Sep-19 09:04N 47°21' W 003°09'0 0.0
2017-Sep-19 09:00N 47°21' W 003°09'0 0.0
2017-Sep-19 08:23N 47°21' W 003°09'4 9.9
2017-Sep-19 08:01N 47°25' W 003°08'4 8.3
2017-Sep-19 07:30N 47°29' W 003°07'0 0.0
2017-Sep-19 07:00N 47°29' W 003°07'0 0.0
2017-Sep-19 06:30N 47°29' W 003°07'611.4
2017-Sep-19 06:00N 47°23' W 003°08'2 0.2
2017-Sep-18 17:43N 47°21' W 003°09'0 0.3
2017-Sep-18 17:31N 47°21' W 003°09'3 5.9
2017-Sep-18 17:00N 47°24' W 003°08'5 9.9
2017-Sep-18 16:30N 47°29' W 003°07'0 0.0
2017-Sep-18 16:00N 47°29' W 003°07'3 5.7
2017-Sep-18 15:31N 47°26' W 003°07'5 7.8
2017-Sep-18 14:52N 47°21' W 003°09'0 0.0
2017-Sep-18 14:30N 47°21' W 003°09'0 0.0
2017-Sep-18 09:00N 47°21' W 003°09'0 0.1
2017-Sep-18 08:27N 47°21' W 003°09'3 5.9
2017-Sep-18 08:00N 47°23' W 003°08'510.7
2017-Sep-18 07:30N 47°29' W 003°07'0 0.0
2017-Sep-18 07:00N 47°29' W 003°07'0 0.0
2017-Sep-18 06:30N 47°29' W 003°07'611.6
2017-Sep-18 06:00N 47°23' W 003°08'2 2.3
2017-Sep-18 05:07N 47°21' W 003°09'0 0.2
2017-Sep-18 05:00N 47°21' W 003°09'0 0.0
2017-Sep-17 20:07N 47°21' W 003°09'0 0.0
2017-Sep-17 20:00N 47°21' W 003°09'2 4.6
2017-Sep-17 19:30N 47°23' W 003°08'611.2
2017-Sep-17 19:00N 47°29' W 003°07'0 0.0
2017-Sep-17 18:31N 47°29' W 003°07'611.2
2017-Sep-17 18:00N 47°23' W 003°08'2 3.2
2017-Sep-17 17:19N 47°21' W 003°09'310.0
2017-Sep-17 16:59N 47°24' W 003°08'5 9.7
2017-Sep-17 16:30N 47°29' W 003°07'0 0.0
2017-Sep-17 16:00N 47°29' W 003°07'3 5.7
2017-Sep-17 15:30N 47°26' W 003°08'5 4.0
2017-Sep-17 14:15N 47°21' W 003°09'2 9.9
2017-Sep-17 14:00N 47°23' W 003°08'510.9
2017-Sep-17 13:30N 47°29' W 003°07'0 0.0
2017-Sep-17 13:00N 47°29' W 003°07'3 5.8
2017-Sep-17 12:30N 47°26' W 003°08'5 2.8
2017-Sep-17 10:42N 47°21' W 003°09'1 7.1
2017-Sep-17 10:30N 47°21' W 003°07'0 0.4
2017-Sep-17 10:00N 47°21' W 003°07'1 1.3
2017-Sep-17 09:30N 47°21' W 003°06'1 1.1
2017-Sep-17 09:00N 47°21' W 003°07'1 1.9
2017-Sep-17 08:16N 47°21' W 003°09'3 9.9
2017-Sep-17 08:00N 47°23' W 003°08'510.7
2017-Sep-17 07:30N 47°29' W 003°07'0 0.0
2017-Sep-17 07:00N 47°29' W 003°07'0 0.0
2017-Sep-17 06:31N 47°29' W 003°07'611.5
2017-Sep-17 06:00N 47°23' W 003°08'2 2.3
2017-Sep-17 05:06N 47°21' W 003°09'0 0.2
2017-Sep-17 05:00N 47°21' W 003°09'0 0.0
2017-Sep-16 17:38N 47°21' W 003°09'0 0.1
2017-Sep-16 17:18N 47°21' W 003°09'3 9.4
2017-Sep-16 17:00N 47°24' W 003°08'510.3
2017-Sep-16 16:30N 47°29' W 003°07'0 0.0
2017-Sep-16 16:00N 47°29' W 003°07'3 5.4
2017-Sep-16 15:30N 47°26' W 003°08'5 4.1
2017-Sep-16 14:15N 47°21' W 003°09'2 9.9
2017-Sep-16 14:00N 47°23' W 003°08'510.8
2017-Sep-16 13:30N 47°29' W 003°07'0 0.0
2017-Sep-16 13:00N 47°29' W 003°07'3 5.9
2017-Sep-16 12:30N 47°26' W 003°08'5 4.0
2017-Sep-16 11:16N 47°21' W 003°09'310.5
2017-Sep-16 11:00N 47°24' W 003°08'510.3
2017-Sep-16 10:30N 47°29' W 003°07'0 0.0
2017-Sep-16 10:00N 47°29' W 003°07'3 6.7
2017-Sep-16 09:30N 47°25' W 003°08'5 3.7
2017-Sep-16 08:16N 47°21' W 003°09'310.1
2017-Sep-16 08:00N 47°23' W 003°08'510.4
2017-Sep-16 07:30N 47°29' W 003°07'0 0.0
2017-Sep-16 07:00N 47°29' W 003°07'0 0.3
2017-Sep-16 06:30N 47°29' W 003°07'611.8
2017-Sep-16 06:00N 47°23' W 003°08'2 2.3
2017-Sep-16 05:10N 47°21' W 003°09'0 0.1
2017-Sep-16 05:00N 47°21' W 003°09'0 0.0
2017-Sep-15 17:41N 47°21' W 003°09'0 0.1
2017-Sep-15 17:17N 47°21' W 003°09'3 9.8
2017-Sep-15 17:00N 47°23' W 003°08'510.5
2017-Sep-15 16:31N 47°29' W 003°07'0 0.0
2017-Sep-15 16:01N 47°29' W 003°07'3 6.2
2017-Sep-15 15:31N 47°25' W 003°08'5 3.8
2017-Sep-15 14:15N 47°21' W 003°09'2 9.8
2017-Sep-15 14:01N 47°23' W 003°08'510.9
2017-Sep-15 13:30N 47°29' W 003°07'0 0.0
2017-Sep-15 13:00N 47°29' W 003°07'3 6.2
2017-Sep-15 12:31N 47°26' W 003°08'5 6.1
2017-Sep-15 11:43N 47°21' W 003°09'0 0.1
2017-Sep-15 11:13N 47°21' W 003°09'310.4
2017-Sep-15 10:58N 47°23' W 003°08'511.5
2017-Sep-15 10:30N 47°29' W 003°07'0 0.0
2017-Sep-15 10:00N 47°29' W 003°07'3 5.8
2017-Sep-15 09:31N 47°26' W 003°08'5 3.9
2017-Sep-15 08:15N 47°21' W 003°09'310.7
2017-Sep-15 07:59N 47°24' W 003°08'510.4
2017-Sep-15 07:30N 47°29' W 003°07'0 0.0
2017-Sep-15 07:00N 47°29' W 003°07'0 0.1
2017-Sep-15 06:30N 47°29' W 003°07'611.3
2017-Sep-15 06:01N 47°23' W 003°08'2 0.2
2017-Sep-14 18:51N 47°21' W 003°09'0 0.1
2017-Sep-14 18:29N 47°21' W 003°09'511.3
2017-Sep-14 18:01N 47°26' W 003°08'2 4.9
2017-Sep-14 17:30N 47°29' W 003°07'2 4.7
2017-Sep-14 17:01N 47°26' W 003°07'510.2
2017-Sep-14 16:31N 47°21' W 003°08'1 1.3
2017-Sep-14 16:00N 47°21' W 003°09'2 5.0
2017-Sep-14 15:30N 47°23' W 003°08'510.8
2017-Sep-14 15:00N 47°29' W 003°07'0 0.0
2017-Sep-14 14:30N 47°29' W 003°07'3 5.1
2017-Sep-14 14:00N 47°26' W 003°08'510.6
2017-Sep-14 13:31N 47°21' W 003°09'0 0.0
2017-Sep-14 11:45N 47°21' W 003°09'310.0
2017-Sep-14 11:30N 47°23' W 003°08'510.9
2017-Sep-14 11:00N 47°29' W 003°07'0 0.0
2017-Sep-14 10:31N 47°29' W 003°07'0 0.0
2017-Sep-14 10:01N 47°29' W 003°07'4 7.5
2017-Sep-14 09:30N 47°25' W 003°08'4 3.3
2017-Sep-14 08:15N 47°21' W 003°09'2 9.7
2017-Sep-14 08:00N 47°23' W 003°08'611.2
2017-Sep-14 07:30N 47°29' W 003°07'0 0.0
2017-Sep-14 07:00N 47°29' W 003°07'0 1.0
2017-Sep-14 06:30N 47°28' W 003°07'611.1
2017-Sep-14 06:00N 47°23' W 003°08'2 2.7
2017-Sep-14 05:17N 47°21' W 003°09'0 0.2
2017-Sep-14 05:00N 47°21' W 003°09'0 0.0
2017-Sep-13 18:48N 47°21' W 003°09'0 0.9
2017-Sep-13 18:29N 47°21' W 003°09'612.2
2017-Sep-13 18:01N 47°27' W 003°08'2 4.2
2017-Sep-13 17:30N 47°29' W 003°07'1 2.2
2017-Sep-13 17:01N 47°28' W 003°07'611.8
2017-Sep-13 16:31N 47°22' W 003°08'1 1.5
2017-Sep-13 15:53N 47°21' W 003°09'410.1
2017-Sep-13 15:30N 47°25' W 003°08'4 7.9
2017-Sep-13 15:00N 47°29' W 003°07'0 0.0
2017-Sep-13 14:31N 47°29' W 003°07'3 5.0
2017-Sep-13 14:01N 47°26' W 003°08'5 2.4
2017-Sep-13 11:47N 47°21' W 003°09'610.7
2017-Sep-13 11:15N 47°26' W 003°07'2 9.6
2017-Sep-13 11:01N 47°29' W 003°07'0 0.0
2017-Sep-13 10:31N 47°29' W 003°07'0 0.0
2017-Sep-13 10:01N 47°29' W 003°07'3 5.3
2017-Sep-13 09:30N 47°26' W 003°08'5 4.1
2017-Sep-13 08:15N 47°21' W 003°09'2 9.9
2017-Sep-13 08:01N 47°23' W 003°08'510.9
2017-Sep-13 07:31N 47°29' W 003°07'0 0.0
2017-Sep-13 07:00N 47°29' W 003°07'1 1.2
2017-Sep-13 06:30N 47°28' W 003°07'611.7
2017-Sep-13 06:00N 47°22' W 003°08'1 0.1
2017-Sep-12 18:47N 47°21' W 003°09'0 0.1
2017-Sep-12 18:29N 47°21' W 003°09'511.0
2017-Sep-12 18:01N 47°26' W 003°08'3 5.1
2017-Sep-12 17:31N 47°29' W 003°07'1 1.4
2017-Sep-12 17:01N 47°28' W 003°07'612.1
2017-Sep-12 16:31N 47°22' W 003°08'1 1.6
2017-Sep-12 15:46N 47°21' W 003°09'310.1
2017-Sep-12 15:31N 47°23' W 003°08'510.6
2017-Sep-12 15:01N 47°29' W 003°07'0 0.0
2017-Sep-12 14:31N 47°29' W 003°07'3 5.1
2017-Sep-12 14:01N 47°26' W 003°08'5 4.8
2017-Sep-12 12:55N 47°21' W 003°09'0 0.0
2017-Sep-12 12:29N 47°21' W 003°09'0 0.0
2017-Sep-12 12:00N 47°21' W 003°09'3 5.4
2017-Sep-12 11:31N 47°23' W 003°08'510.5
2017-Sep-12 11:01N 47°29' W 003°07'0 0.0
2017-Sep-12 10:31N 47°29' W 003°07'0 0.0
2017-Sep-12 10:01N 47°29' W 003°07'4 7.7
2017-Sep-12 09:31N 47°25' W 003°08'4 3.4
2017-Sep-12 08:19N 47°21' W 003°09'310.4
2017-Sep-12 08:01N 47°24' W 003°08'5 9.3
2017-Sep-12 07:30N 47°29' W 003°07'0 0.0
2017-Sep-12 07:01N 47°29' W 003°07'1 1.0
2017-Sep-12 06:30N 47°28' W 003°07'611.5
2017-Sep-12 06:01N 47°22' W 003°08'2 2.0
2017-Sep-12 05:08N 47°21' W 003°09'0 0.1
2017-Sep-12 05:01N 47°21' W 003°09'0 0.0
2017-Sep-11 18:57N 47°21' W 003°09'0 0.2
2017-Sep-11 18:31N 47°21' W 003°09'611.4
2017-Sep-11 18:00N 47°26' W 003°08'2 4.3
2017-Sep-11 17:30N 47°29' W 003°07'  

Dump ship's entire track history